Time;durP1;ratioP1;P1;durP2;ratioP2;P2;SDS_P1;SDS_P2;PMS_P1;PMS_P2;Temp;Humidity;BMP_temperature;BMP_pressure;BME280_temperature;BME280_humidity;BME280_pressure;Samples;Min_cycle;Max_cycle;Signal;HPM_P1;HPM_P2
2022/03/23 00:00:43;;;;;;;4.55;2.80;;;19.90;52.00;;;;;;4930585;29;20058;-93
2022/03/23 00:03:37;;;;;;;4.72;2.60;;;18.90;51.10;;;;;;4960889;29;20079;-94
2022/03/23 00:06:49;;;;;;;5.95;3.25;;;21.20;52.50;;;;;;4942757;29;20415;-94
2022/03/23 00:09:41;;;;;;;4.50;2.92;;;20.80;52.20;;;;;;4924187;29;20055;-94
2022/03/23 00:12:28;;;;;;;4.93;3.03;;;17.60;50.90;;;;;;4911034;29;20063;-93
2022/03/23 00:14:54;;;;;;;5.28;3.10;;;19.80;51.90;;;;;;4941638;29;20047;-95
2022/03/23 00:17:39;;;;;;;5.55;2.92;;;19.80;52.40;;;;;;4923121;29;20051;-94
2022/03/23 00:20:29;;;;;;;4.63;2.90;;;19.80;52.00;;;;;;4923242;29;20504;-93
2022/03/23 00:23:10;;;;;;;4.47;2.90;;;21.10;52.90;;;;;;4922323;29;20095;-93
2022/03/23 00:25:48;;;;;;;5.45;2.90;;;19.80;52.30;;;;;;4922749;29;20044;-94
2022/03/23 00:28:25;;;;;;;6.35;2.92;;;19.90;51.70;;;;;;4892241;29;20054;-94
2022/03/23 00:31:41;;;;;;;5.07;2.90;;;19.00;51.60;;;;;;4898008;29;20074;-94
2022/03/23 00:34:11;;;;;;;4.72;2.95;;;19.20;51.40;;;;;;4863307;29;20057;-94
2022/03/23 00:37:37;;;;;;;4.43;2.80;;;19.70;51.80;;;;;;4847412;29;20059;-93
2022/03/23 00:49:43;;;;;;;4.45;2.78;;;18.70;51.20;;;;;;4941112;29;20056;-92
2022/03/23 00:52:55;;;;;;;4.60;3.05;;;19.70;52.70;;;;;;4924574;29;20047;-95
2022/03/23 00:55:30;;;;;;;5.53;2.90;;;20.40;52.20;;;;;;4940487;29;20079;-94
2022/03/23 00:58:37;;;;;;;4.78;3.10;;;19.60;53.10;;;;;;4923282;29;20051;-93
2022/03/23 01:01:16;;;;;;;5.07;3.20;;;20.60;52.30;;;;;;4937264;29;20086;-93
2022/03/23 01:03:48;;;;;;;5.40;3.00;;;19.00;51.90;;;;;;4922670;29;20056;-93
2022/03/23 01:06:58;;;;;;;5.55;3.47;;;20.60;52.80;;;;;;4940444;29;20103;-93
2022/03/23 01:09:29;;;;;;;4.20;2.60;;;19.80;51.90;;;;;;4924089;29;20134;-93
2022/03/23 01:12:05;;;;;;;5.50;3.03;;;19.80;52.60;;;;;;4940663;29;20399;-93
2022/03/23 01:14:43;;;;;;;5.50;3.13;;;19.60;52.70;;;;;;4925062;29;20150;-95
2022/03/23 01:17:09;;;;;;;4.93;3.00;;;19.80;52.50;;;;;;4923214;29;20048;-94
2022/03/23 01:19:38;;;;;;;6.28;3.05;;;20.50;53.40;;;;;;4909371;29;20044;-94
2022/03/23 01:22:22;;;;;;;4.75;3.10;;;19.70;52.40;;;;;;4940051;29;20092;-93
2022/03/23 01:25:08;;;;;;;4.68;3.10;;;18.70;52.30;;;;;;4923178;29;20058;-93
2022/03/23 01:28:05;;;;;;;4.60;3.10;;;19.60;52.10;;;;;;4906937;29;20070;-92
2022/03/23 01:30:31;;;;;;;6.07;3.03;;;19.30;51.70;;;;;;4923904;29;20134;-92
2022/03/23 01:33:01;;;;;;;5.30;3.15;;;18.50;52.10;;;;;;4905711;29;20075;-91
2022/03/23 01:35:36;;;;;;;4.43;2.70;;;19.30;52.60;;;;;;4941600;29;20120;-93
2022/03/23 01:38:06;;;;;;;6.72;3.20;;;19.60;52.80;;;;;;4939878;29;20059;-92
2022/03/23 01:41:41;;;;;;;4.47;2.95;;;19.60;51.90;;;;;;4941022;23;20198;-93
2022/03/23 01:44:43;;;;;;;4.90;3.00;;;18.80;51.50;;;;;;4911655;29;20055;-93
2022/03/23 01:47:26;;;;;;;5.77;3.43;;;21.20;52.80;;;;;;4924104;29;20143;-93
2022/03/23 01:53:07;;;;;;;5.18;3.13;;;19.60;51.90;;;;;;4982969;23;20511;-94
2022/03/23 01:55:38;;;;;;;5.10;3.35;;;19.90;52.10;;;;;;4890632;29;20492;-94
2022/03/23 01:58:07;;;;;;;6.07;3.33;;;21.20;53.20;;;;;;4925942;29;20048;-94
2022/03/23 02:04:34;;;;;;;5.47;3.03;;;19.70;52.00;;;;;;4854084;29;20054;-94
2022/03/23 02:07:22;;;;;;;5.50;2.83;;;17.80;51.30;;;;;;4868696;29;20145;-94
2022/03/23 02:10:04;;;;;;;5.53;3.47;;;17.90;51.30;;;;;;4870418;29;20227;-93
2022/03/23 02:13:02;;;;;;;5.90;3.47;;;19.50;52.00;;;;;;4782207;29;20082;-93
2022/03/23 02:15:47;;;;;;;5.10;3.22;;;19.80;53.40;;;;;;4853364;29;20057;-94
2022/03/23 02:18:16;;;;;;;5.25;3.35;;;17.00;51.20;;;;;;4870157;29;20073;-93
2022/03/23 02:21:06;;;;;;;5.45;3.50;;;19.10;52.40;;;;;;4854931;29;20594;-94
2022/03/23 02:23:32;;;;;;;4.78;3.25;;;19.70;52.10;;;;;;4893043;23;20059;-94
2022/03/23 02:26:13;;;;;;;5.07;2.75;;;19.00;52.30;;;;;;4942521;29;20473;-93
2022/03/23 02:28:57;;;;;;;6.10;3.60;;;20.40;53.60;;;;;;4925330;29;20051;-92
2022/03/23 02:31:23;;;;;;;5.88;3.03;;;20.70;53.10;;;;;;4909481;29;20051;-94
2022/03/23 02:33:53;;;;;;;5.90;3.65;;;19.50;52.80;;;;;;4927265;29;20044;-94
2022/03/23 02:36:24;;;;;;;5.20;3.30;;;19.20;53.00;;;;;;4934081;23;20064;-93
2022/03/23 02:39:05;;;;;;;6.38;3.70;;;21.10;54.40;;;;;;4929837;29;20044;-93
2022/03/23 02:42:02;;;;;;;6.15;3.70;;;19.50;52.50;;;;;;4945984;29;20043;-94
2022/03/23 02:44:36;;;;;;;5.82;3.50;;;19.40;52.60;;;;;;4944697;29;20047;-94
2022/03/23 02:50:44;;;;;;;5.95;3.25;;;19.50;52.00;;;;;;5167864;23;20080;-92
2022/03/23 03:02:47;;;;;;;5.03;3.40;;;19.50;52.10;;;;;;4986383;23;20504;-94
2022/03/23 03:05:17;;;;;;;8.02;3.75;;;19.60;52.80;;;;;;4921864;29;20074;-93
2022/03/23 03:11:03;;;;;;;5.22;3.28;;;20.70;52.80;;;;;;4884930;29;20049;-93
2022/03/23 03:17:05;;;;;;;6.07;3.55;;;18.20;51.40;;;;;;4927804;29;20138;-93
2022/03/23 03:19:54;;;;;;;5.60;3.33;;;18.70;52.10;;;;;;4928304;29;20493;-93
2022/03/23 03:22:41;;;;;;;5.00;3.42;;;19.40;52.40;;;;;;4944266;29;20048;-93
2022/03/23 03:25:20;;;;;;;7.10;3.80;;;19.40;52.40;;;;;;4897313;29;20118;-95
2022/03/23 03:32:34;;;;;;;5.88;3.45;;;20.10;52.70;;;;;;4707083;30;20108;-95
2022/03/23 03:35:03;;;;;;;5.57;3.50;;;19.70;52.20;;;;;;4706668;30;20061;-94
2022/03/23 03:38:34;;;;;;;5.30;3.38;;;20.70;53.00;;;;;;4706348;30;20059;-93
2022/03/23 03:44:50;;;;;;;5.00;3.30;;;20.10;52.50;;;;;;5000392;23;20059;-94
2022/03/23 03:48:19;;;;;;;5.45;3.85;;;20.70;53.40;;;;;;4930597;29;20048;-95
2022/03/23 03:50:48;;;;;;;6.28;3.42;;;19.60;52.10;;;;;;4870916;29;20078;-93
2022/03/23 03:53:26;;;;;;;5.28;3.47;;;19.50;52.50;;;;;;4947165;29;20071;-94
2022/03/23 03:59:30;;;;;;;6.03;4.13;;;19.70;52.20;;;;;;4944427;29;20128;-94
2022/03/23 04:05:54;;;;;;;6.57;3.70;;;19.30;52.40;;;;;;4923227;29;20106;-93
2022/03/23 04:08:20;;;;;;;5.32;3.50;;;19.80;52.30;;;;;;4946256;29;20048;-93
2022/03/23 04:11:12;;;;;;;6.32;3.90;;;19.30;52.60;;;;;;4947292;29;20047;-92
2022/03/23 04:21:07;;;;;;;5.95;3.90;;;19.70;52.30;;;;;;4946709;29;20046;-93
2022/03/23 04:24:13;;;;;;;5.75;3.95;;;21.00;53.80;;;;;;4944976;29;20059;-94
2022/03/23 04:26:47;;;;;;;5.63;3.67;;;19.50;52.20;;;;;;4931119;29;20147;-94
2022/03/23 04:29:29;;;;;;;5.93;4.00;;;19.30;52.10;;;;;;4914371;29;20048;-94
2022/03/23 04:32:27;;;;;;;6.93;3.60;;;17.90;52.20;;;;;;4931181;29;20036;-95
2022/03/23 04:34:53;;;;;;;5.78;4.00;;;19.40;52.10;;;;;;4957354;23;20044;-95
2022/03/23 04:37:25;;;;;;;5.80;3.60;;;17.50;51.70;;;;;;4926677;29;20052;-95
2022/03/23 04:43:41;;;;;;;6.93;4.05;;;19.30;52.10;;;;;;4925755;29;19930;-95
2022/03/23 04:46:13;;;;;;;6.25;4.15;;;19.30;52.10;;;;;;4925456;29;20044;-93
2022/03/23 04:48:48;;;;;;;4.70;3.00;;;19.40;53.20;;;;;;4926606;29;20075;-93
2022/03/23 04:54:29;;;;;;;6.65;4.32;;;18.90;52.50;;;;;;4925932;29;20052;-93
2022/03/23 04:57:27;;;;;;;5.85;3.75;;;19.00;53.40;;;;;;4924786;29;20084;-94
2022/03/23 05:00:21;;;;;;;5.38;4.00;;;19.40;52.20;;;;;;4925762;29;20125;-93
2022/03/23 05:03:07;;;;;;;5.03;3.65;;;19.50;52.20;;;;;;4922437;29;20048;-94
2022/03/23 05:05:58;;;;;;;5.63;3.40;;;19.10;53.00;;;;;;4924783;29;20036;-92
2022/03/23 05:08:36;;;;;;;5.57;3.72;;;18.20;51.60;;;;;;4923781;29;20067;-94
2022/03/23 05:14:14;;;;;;;6.72;3.92;;;18.90;52.20;;;;;;4911135;29;20051;-94
2022/03/23 05:16:55;;;;;;;5.10;3.38;;;19.20;52.80;;;;;;4923631;29;20107;-93
2022/03/23 05:19:21;;;;;;;5.35;3.55;;;17.20;52.50;;;;;;4922090;29;20382;-93
2022/03/23 05:21:53;;;;;;;4.97;3.10;;;17.10;51.30;;;;;;4921446;29;20051;-95
2022/03/23 05:24:24;;;;;;;6.22;3.90;;;19.10;53.00;;;;;;4920007;29;20413;-93
2022/03/23 05:26:59;;;;;;;5.15;3.55;;;19.60;52.80;;;;;;4917944;29;20111;-94
2022/03/23 05:32:18;;;;;;;5.90;4.00;;;19.10;52.00;;;;;;4990990;23;20579;-93
2022/03/23 05:35:08;;;;;;;6.00;3.55;;;19.20;52.70;;;;;;4881415;29;20068;-93
2022/03/23 05:38:38;;;;;;;6.95;4.07;;;19.00;52.40;;;;;;4922157;23;20047;-93
2022/03/23 05:42:05;;;;;;;5.68;3.53;;;19.30;52.20;;;;;;4943563;29;20079;-94
2022/03/23 05:44:58;;;;;;;5.15;3.50;;;20.20;53.10;;;;;;4943578;29;20062;-94
2022/03/23 05:47:59;;;;;;;5.72;3.67;;;18.50;51.70;;;;;;4943202;29;20048;-94
2022/03/23 05:50:28;;;;;;;5.88;3.65;;;19.20;52.10;;;;;;4923354;29;20056;-94
2022/03/23 05:53:03;;;;;;;4.97;3.30;;;18.30;52.60;;;;;;4942224;29;20048;-94
2022/03/23 05:58:45;;;;;;;5.72;3.78;;;19.30;52.40;;;;;;4923778;29;20055;-94
2022/03/23 06:01:13;;;;;;;5.55;3.60;;;19.30;52.20;;;;;;4922716;29;20051;-93
2022/03/23 06:04:12;;;;;;;5.72;4.00;;;18.40;51.90;;;;;;4922769;29;20212;-93
2022/03/23 06:07:17;;;;;;;5.28;3.53;;;20.00;52.50;;;;;;4922672;29;20044;-92
2022/03/23 06:10:48;;;;;;;5.32;3.70;;;16.70;51.40;;;;;;4912103;29;20076;-92
2022/03/23 06:13:16;;;;;;;;;;;20.30;52.70;;;;;;4845689;29;20060;-91
2022/03/23 06:15:45;;;;;;;5.50;3.70;;;18.80;51.90;;;;;;4829978;29;19924;-91
2022/03/23 06:18:32;;;;;;;5.68;3.80;;;19.00;52.80;;;;;;4833274;29;20062;-94
2022/03/23 06:21:04;;;;;;;6.60;4.15;;;20.80;53.70;;;;;;4823727;29;20068;-94
2022/03/23 06:23:31;;;;;;;6.05;3.75;;;19.40;53.20;;;;;;4845739;29;20057;-95
2022/03/23 06:26:10;;;;;;;5.20;3.22;;;17.60;51.50;;;;;;4846051;29;20436;-94
2022/03/23 06:28:53;;;;;;;6.03;2.92;;;18.70;51.90;;;;;;4830252;29;20057;-95
2022/03/23 06:31:20;;;;;;;5.10;3.50;;;20.00;53.10;;;;;;4909811;29;20159;-94
2022/03/23 06:33:46;;;;;;;5.32;3.30;;;18.00;51.60;;;;;;4922504;29;20044;-94
2022/03/23 06:36:32;;;;;;;5.40;3.50;;;20.10;52.90;;;;;;4922093;29;20139;-93
2022/03/23 06:39:10;;;;;;;5.07;3.53;;;19.00;52.00;;;;;;4918271;29;20127;-88
2022/03/23 06:41:54;;;;;;;6.70;4.03;;;18.90;52.40;;;;;;4901739;29;20059;-92
2022/03/23 06:44:25;;;;;;;5.63;3.85;;;18.50;51.80;;;;;;4903091;29;20060;-93
2022/03/23 06:46:51;;;;;;;6.00;3.83;;;19.10;52.90;;;;;;4902635;29;20044;-91
2022/03/23 06:49:22;;;;;;;5.45;3.50;;;20.20;52.90;;;;;;4902425;29;20048;-92
2022/03/23 06:52:06;;;;;;;5.43;3.63;;;19.20;52.50;;;;;;4911846;29;20044;-91
2022/03/23 06:54:35;;;;;;;5.55;3.83;;;18.00;51.50;;;;;;4908841;29;20080;-94
2022/03/23 06:57:01;;;;;;;5.18;3.58;;;19.70;53.10;;;;;;4920329;29;20067;-93
2022/03/23 06:59:27;;;;;;;5.75;3.65;;;18.90;52.10;;;;;;4937981;29;20048;-93
2022/03/23 07:02:08;;;;;;;6.25;3.60;;;18.30;51.70;;;;;;4922909;29;20052;-93
2022/03/23 07:04:34;;;;;;;5.15;3.55;;;18.90;53.10;;;;;;4921238;29;20139;-95
2022/03/23 07:07:02;;;;;;;4.60;3.10;;;19.50;52.70;;;;;;4921101;29;20076;-94
2022/03/23 07:09:34;;;;;;;5.00;3.53;;;18.80;52.20;;;;;;4922392;29;20051;-93
2022/03/23 07:12:10;;;;;;;5.63;3.60;;;18.20;51.60;;;;;;4921613;29;20051;-94
2022/03/23 07:14:52;;;;;;;5.32;3.50;;;19.00;52.30;;;;;;4938422;29;20040;-94
2022/03/23 07:17:32;;;;;;;5.95;3.70;;;18.90;52.00;;;;;;4920403;29;20068;-93
2022/03/23 07:21:20;;;;;;;5.50;3.50;;;19.30;52.20;;;;;;4907545;29;20048;-93
2022/03/23 07:23:45;;;;;;;5.85;3.80;;;20.20;52.80;;;;;;4904731;29;20044;-94
2022/03/23 07:26:45;;;;;;;6.80;3.90;;;19.90;53.00;;;;;;4905284;29;20096;-93
2022/03/23 07:29:31;;;;;;;6.57;3.45;;;19.40;52.20;;;;;;4900045;29;20064;-91
2022/03/23 07:32:09;;;;;;;6.32;4.40;;;18.90;52.00;;;;;;4903067;29;20076;-89
2022/03/23 07:34:35;;;;;;;5.53;3.65;;;18.90;52.20;;;;;;4911355;29;20059;-94
2022/03/23 07:37:07;;;;;;;6.53;4.30;;;20.30;52.90;;;;;;4923618;29;20139;-92
2022/03/23 07:39:57;;;;;;;5.53;4.10;;;20.60;53.40;;;;;;4924975;29;20043;-91
2022/03/23 07:42:28;;;;;;;5.72;3.88;;;19.20;52.20;;;;;;4922985;29;20500;-95
2022/03/23 07:44:58;;;;;;;6.13;3.85;;;18.20;52.30;;;;;;4922549;29;20048;-94
2022/03/23 07:47:26;;;;;;;6.70;4.10;;;18.90;52.20;;;;;;4922031;29;20134;-90
2022/03/23 07:49:55;;;;;;;5.63;3.53;;;20.10;52.60;;;;;;4916545;29;20155;-89
2022/03/23 07:52:21;;;;;;;6.00;3.40;;;18.90;52.00;;;;;;4910516;29;20048;-88
2022/03/23 07:54:48;;;;;;;6.72;3.75;;;18.90;51.90;;;;;;4909635;29;20055;-89
2022/03/23 07:57:14;;;;;;;5.60;3.50;;;18.90;51.90;;;;;;4906228;29;20068;-91
2022/03/23 07:59:40;;;;;;;6.25;3.70;;;18.90;52.00;;;;;;4903777;29;20077;-89
2022/03/23 08:02:07;;;;;;;4.97;3.72;;;18.90;52.00;;;;;;4916218;29;20106;-90
2022/03/23 08:04:34;;;;;;;4.65;3.42;;;18.90;51.90;;;;;;4904582;29;20040;-88
2022/03/23 08:07:03;;;;;;;4.80;3.53;;;18.90;51.90;;;;;;4909480;29;20047;-90
2022/03/23 08:09:29;;;;;;;6.43;3.72;;;18.90;52.00;;;;;;4902321;29;20052;-88
2022/03/23 08:11:56;;;;;;;6.32;3.47;;;18.90;51.90;;;;;;4916790;29;20048;-89
2022/03/23 08:14:22;;;;;;;5.40;3.17;;;18.90;51.90;;;;;;4901162;29;20052;-89
2022/03/23 08:16:47;;;;;;;5.35;3.58;;;18.90;51.90;;;;;;4913511;29;20056;-89
2022/03/23 08:19:13;;;;;;;5.57;3.63;;;18.90;51.90;;;;;;4911948;29;20107;-88
2022/03/23 08:21:39;;;;;;;5.78;4.00;;;18.90;51.90;;;;;;4912495;29;20122;-89
2022/03/23 08:24:08;;;;;;;5.38;3.38;;;18.90;51.90;;;;;;4912104;29;20087;-89
2022/03/23 08:26:34;;;;;;;5.68;3.55;;;19.00;51.90;;;;;;4915160;29;20146;-89
2022/03/23 08:29:08;;;;;;;5.40;3.42;;;19.00;52.00;;;;;;4915358;29;20068;-89
2022/03/23 08:31:37;;;;;;;6.97;3.67;;;19.10;52.90;;;;;;4911214;29;20063;-90
2022/03/23 08:34:06;;;;;;;5.55;3.85;;;19.50;52.10;;;;;;4904952;29;20124;-90
2022/03/23 08:36:37;;;;;;;6.35;3.85;;;18.70;51.80;;;;;;4906099;29;20044;-90
2022/03/23 08:39:06;;;;;;;6.15;3.85;;;19.10;52.20;;;;;;4908191;29;20144;-88
2022/03/23 08:41:31;;;;;;;5.40;3.72;;;20.70;53.50;;;;;;4910604;29;20067;-87
2022/03/23 08:44:03;;;;;;;5.15;3.45;;;20.50;52.60;;;;;;4901611;29;20127;-91
2022/03/23 08:46:47;;;;;;;5.95;3.83;;;19.00;52.30;;;;;;4914162;29;20048;-89
2022/03/23 08:49:15;;;;;;;5.57;3.53;;;17.90;52.30;;;;;;4916076;29;20132;-89
2022/03/23 08:51:56;;;;;;;6.05;3.60;;;20.00;53.40;;;;;;4911223;29;20040;-94
2022/03/23 08:54:34;;;;;;;6.28;4.07;;;19.30;51.90;;;;;;4917761;29;20095;-91
2022/03/23 08:57:07;;;;;;;5.88;3.63;;;19.40;52.10;;;;;;4915588;29;20059;-90
2022/03/23 08:59:33;;;;;;;6.15;3.70;;;18.30;51.60;;;;;;4933621;29;20048;-91
2022/03/23 09:02:37;;;;;;;5.70;3.55;;;19.30;52.00;;;;;;4932939;29;20076;-91
2022/03/23 09:05:14;;;;;;;5.00;3.08;;;19.10;51.70;;;;;;4940678;29;20048;-95
2022/03/23 09:08:11;;;;;;;7.60;5.35;;;19.80;52.80;;;;;;4924308;29;20043;-94
2022/03/23 09:10:46;;;;;;;14.90;11.60;;;19.80;52.00;;;;;;4923136;29;20519;-94
2022/03/23 09:13:21;;;;;;;19.08;14.70;;;19.60;51.70;;;;;;4939496;29;20126;-90
2022/03/23 09:16:07;;;;;;;21.80;15.77;;;20.80;51.80;;;;;;4921522;29;20042;-90
2022/03/23 09:18:32;;;;;;;18.55;14.15;;;19.80;50.60;;;;;;4937482;29;20059;-90
2022/03/23 09:20:58;;;;;;;17.73;14.25;;;19.10;50.30;;;;;;4938018;29;20044;-90
2022/03/23 09:23:24;;;;;;;17.75;12.95;;;20.30;51.00;;;;;;4938306;29;20055;-90
2022/03/23 09:26:03;;;;;;;16.45;12.15;;;19.00;50.60;;;;;;4919906;29;20175;-90
2022/03/23 09:28:38;;;;;;;13.77;10.52;;;18.80;50.20;;;;;;4891577;29;20051;-90
2022/03/23 09:31:18;;;;;;;15.52;11.18;;;19.10;50.50;;;;;;4921388;29;20130;-89
2022/03/23 09:33:49;;;;;;;15.60;10.20;;;19.50;50.60;;;;;;4923525;29;20090;-89
2022/03/23 09:37:47;;;;;;;13.70;9.77;;;19.90;51.50;;;;;;4921376;29;20554;-90
2022/03/23 09:39:07;;;;;;;12.10;8.77;;;18.40;50.20;;;;;;4921561;29;20052;-90
2022/03/23 09:41:33;;;;;;;11.05;8.27;;;18.30;50.20;;;;;;4902957;29;20048;-90
2022/03/23 09:43:59;;;;;;;10.82;7.68;;;20.90;51.50;;;;;;4902112;29;20048;-91
2022/03/23 09:46:35;;;;;;;12.02;8.70;;;19.20;50.50;;;;;;4902799;29;20059;-90
2022/03/23 09:49:00;;;;;;;12.00;8.07;;;19.20;50.50;;;;;;4920644;29;20127;-90
2022/03/23 09:51:26;;;;;;;10.20;7.65;;;19.70;50.80;;;;;;4921155;29;20145;-91
2022/03/23 09:53:52;;;;;;;9.73;6.93;;;20.80;51.40;;;;;;4919328;29;20047;-90
2022/03/23 09:56:18;;;;;;;9.95;6.78;;;19.30;50.50;;;;;;4914759;29;20052;-89
2022/03/23 09:58:44;;;;;;;8.80;6.22;;;19.30;50.50;;;;;;4917707;29;20048;-90
2022/03/23 10:01:50;;;;;;;9.77;6.53;;;19.30;50.50;;;;;;4912920;29;20054;-90
2022/03/23 10:04:18;;;;;;;8.85;5.75;;;19.30;50.50;;;;;;4927059;29;20048;-90
2022/03/23 10:07:04;;;;;;;9.23;6.00;;;19.30;50.40;;;;;;4909664;29;20052;-90
2022/03/23 10:09:39;;;;;;;8.88;6.13;;;19.30;50.40;;;;;;4934995;29;20610;-89
2022/03/23 10:12:43;;;;;;;7.65;5.05;;;19.30;50.40;;;;;;4911229;29;20127;-88
2022/03/23 10:15:46;;;;;;;8.60;5.40;;;19.40;51.10;;;;;;4913761;29;20048;-88
2022/03/23 10:18:20;;;;;;;6.30;4.80;;;19.40;50.40;;;;;;4914648;29;20055;-88
2022/03/23 10:20:51;;;;;;;7.80;5.13;;;19.40;50.40;;;;;;4915686;29;20055;-92
2022/03/23 10:23:22;;;;;;;7.38;4.97;;;19.40;50.30;;;;;;4921012;29;20253;-91
2022/03/23 10:25:50;;;;;;;7.53;4.40;;;19.40;50.40;;;;;;4902232;29;20060;-89
2022/03/23 10:28:16;;;;;;;6.53;4.72;;;19.40;50.30;;;;;;4919863;29;20048;-91
2022/03/23 10:30:42;;;;;;;7.43;4.22;;;19.50;50.40;;;;;;4902849;29;20066;-90
2022/03/23 10:33:22;;;;;;;5.82;4.20;;;19.40;50.30;;;;;;4903455;29;20137;-89
2022/03/23 10:35:47;;;;;;;6.30;3.92;;;19.50;50.50;;;;;;4902619;29;20056;-89
2022/03/23 10:38:20;;;;;;;5.95;3.60;;;19.50;50.30;;;;;;4921106;29;20048;-90
2022/03/23 10:40:47;;;;;;;5.38;3.70;;;19.50;50.30;;;;;;4912137;29;20060;-90
2022/03/23 10:43:21;;;;;;;5.45;3.63;;;19.50;50.30;;;;;;4921545;29;20508;-89
2022/03/23 10:45:49;;;;;;;5.57;3.58;;;19.50;50.30;;;;;;4924137;29;20087;-90
2022/03/23 10:48:18;;;;;;;4.97;3.40;;;19.50;50.20;;;;;;4942460;29;20095;-91
2022/03/23 10:50:57;;;;;;;5.40;3.83;;;19.50;50.20;;;;;;4922382;29;20052;-89
2022/03/23 10:53:34;;;;;;;5.47;3.40;;;19.60;50.30;;;;;;4940906;29;20075;-89
2022/03/23 10:56:00;;;;;;;5.93;3.88;;;19.60;50.20;;;;;;4928937;29;20543;-89
2022/03/23 10:58:26;;;;;;;5.78;3.40;;;19.60;50.20;;;;;;4943182;29;20055;-89
2022/03/23 11:00:56;;;;;;;4.78;3.42;;;19.60;50.20;;;;;;4925751;29;20078;-89
2022/03/23 11:03:42;;;;;;;5.13;3.33;;;19.60;50.20;;;;;;4923738;29;20055;-91
2022/03/23 11:06:10;;;;;;;4.72;3.10;;;19.60;50.20;;;;;;4927265;29;20123;-92
2022/03/23 11:15:46;;;;;;;4.75;3.25;;;19.70;50.20;;;;;;4909737;29;20504;-90
2022/03/23 11:15:47;;;;;;;4.45;2.92;;;19.70;50.20;;;;;;4921094;29;20115;-90
2022/03/23 11:18:27;;;;;;;5.18;2.88;;;19.70;50.10;;;;;;4934821;29;20055;-91
2022/03/23 11:20:57;;;;;;;4.45;3.08;;;19.70;50.10;;;;;;4914235;29;20106;-91
2022/03/23 11:23:24;;;;;;;6.28;3.72;;;19.70;50.10;;;;;;4906594;29;20091;-87
2022/03/23 11:25:55;;;;;;;5.30;3.28;;;19.70;50.20;;;;;;4906295;29;20044;-90
2022/03/23 11:28:21;;;;;;;4.65;3.00;;;19.80;50.10;;;;;;4905958;29;20504;-89
2022/03/23 11:30:47;;;;;;;5.57;2.88;;;19.80;50.10;;;;;;4920474;29;20048;-90
2022/03/23 11:33:20;;;;;;;4.97;3.00;;;19.80;50.10;;;;;;4918759;29;20574;-90
2022/03/23 11:35:53;;;;;;;5.25;3.45;;;20.20;50.30;;;;;;4925037;29;20408;-90
2022/03/23 11:38:44;;;;;;;3.88;2.67;;;20.10;50.20;;;;;;4943031;29;20054;-90
2022/03/23 11:41:14;;;;;;;4.50;2.67;;;19.80;50.00;;;;;;4931658;29;20047;-90
2022/03/23 11:43:52;;;;;;;4.05;2.92;;;19.80;50.00;;;;;;4943800;29;20485;-91
2022/03/23 11:46:23;;;;;;;4.80;2.85;;;19.80;50.00;;;;;;4943128;29;20090;-90
2022/03/23 11:49:01;;;;;;;5.38;3.20;;;19.90;50.00;;;;;;4910480;29;20047;-91
2022/03/23 11:51:59;;;;;;;4.00;2.63;;;19.90;50.00;;;;;;4923642;29;20115;-90
2022/03/23 11:55:37;;;;;;;4.45;2.80;;;20.00;50.00;;;;;;4941276;29;20055;-90
2022/03/23 11:57:18;;;;;;;4.57;2.90;;;19.90;50.00;;;;;;4910461;29;20060;-90
2022/03/23 11:59:45;;;;;;;4.90;2.85;;;19.90;50.00;;;;;;4906721;29;20059;-90
2022/03/23 12:02:10;;;;;;;4.65;2.90;;;19.90;50.10;;;;;;4924380;29;20062;-93
2022/03/23 12:04:36;;;;;;;4.63;2.72;;;19.90;49.90;;;;;;4925115;29;20051;-93
2022/03/23 12:07:10;;;;;;;4.68;2.90;;;19.90;49.90;;;;;;4943265;29;20039;-92
2022/03/23 12:09:37;;;;;;;4.32;2.50;;;20.00;50.00;;;;;;4931488;29;20046;-92
2022/03/23 12:12:22;;;;;;;4.43;2.95;;;20.00;50.00;;;;;;4929420;29;20116;-94
2022/03/23 12:15:16;;;;;;;5.15;2.70;;;20.00;50.00;;;;;;4938171;29;20472;-94
2022/03/23 12:18:06;;;;;;;5.85;3.20;;;20.00;49.90;;;;;;4937763;29;20052;-94
2022/03/23 12:20:37;;;;;;;4.70;3.13;;;20.00;50.00;;;;;;4918349;29;20044;-93
2022/03/23 12:23:15;;;;;;;5.05;2.92;;;20.10;50.00;;;;;;4934706;23;20503;-94
2022/03/23 12:26:12;;;;;;;4.32;2.50;;;20.20;50.10;;;;;;4924304;29;20143;-94
2022/03/23 12:28:55;;;;;;;4.38;2.88;;;20.10;49.90;;;;;;4942311;29;20062;-93
2022/03/23 12:31:20;;;;;;;4.25;2.70;;;21.30;50.60;;;;;;4942482;29;20052;-95
2022/03/23 12:37:19;;;;;;;5.55;2.90;;;20.10;49.80;;;;;;4983551;23;20052;-94
2022/03/23 12:39:56;;;;;;;4.38;2.72;;;20.20;49.90;;;;;;4905604;29;20056;-95
2022/03/23 12:42:49;;;;;;;5.65;2.65;;;20.10;49.80;;;;;;4913246;29;20060;-96
2022/03/23 13:04:11;;;;;;;4.32;2.40;;;20.40;49.90;;;;;;5143560;23;20024;31
2022/03/23 13:07:31;;;;;;;3.90;2.58;;;20.20;49.70;;;;;;4903644;29;20067;-92
2022/03/23 13:13:36;;;;;;;;;;;;;;;;;;;;;
2022/03/23 13:16:22;;;;;;;4.18;2.50;;;21.70;50.80;;;;;;4895744;29;20056;-92
2022/03/23 13:18:53;;;;;;;5.97;2.67;;;21.60;50.50;;;;;;4887670;29;20068;-92
2022/03/23 13:21:41;;;;;;;3.83;2.30;;;20.90;50.00;;;;;;4896258;29;20819;-92
2022/03/23 13:24:15;;;;;;;3.40;2.03;;;20.30;49.70;;;;;;4904507;29;20063;-92
2022/03/23 13:26:58;;;;;;;3.42;2.10;;;21.80;50.70;;;;;;4904354;29;20048;-93
2022/03/23 13:29:42;;;;;;;7.00;3.00;;;20.30;50.10;;;;;;4882648;29;20048;-92
2022/03/23 13:32:10;;;;;;;3.42;2.00;;;21.40;50.50;;;;;;4921287;29;20589;-93
2022/03/23 13:34:59;;;;;;;3.67;2.25;;;21.90;50.70;;;;;;4902418;29;20059;-92
2022/03/23 13:38:01;;;;;;;4.15;2.25;;;21.50;50.30;;;;;;4870888;29;20050;-92
2022/03/23 13:44:01;;;;;;;3.22;2.03;;;20.30;49.60;;;;;;4919955;29;20063;-93
2022/03/23 13:46:28;;;;;;;3.95;2.10;;;20.30;50.10;;;;;;4914391;29;20113;-93
2022/03/23 13:49:28;;;;;;;3.50;2.17;;;21.10;50.20;;;;;;4951549;23;20047;-93
2022/03/23 13:52:39;;;;;;;3.05;1.95;;;20.70;49.80;;;;;;4935868;29;20040;-93
2022/03/23 13:55:16;;;;;;;2.83;1.73;;;20.40;49.60;;;;;;4922763;29;20047;-93
2022/03/23 14:00:32;;;;;;;4.53;2.20;;;20.50;49.70;;;;;;4950285;29;20119;-94
2022/03/23 14:03:00;;;;;;;4.32;2.30;;;20.70;50.20;;;;;;4932495;29;21467;-93
2022/03/23 14:05:28;;;;;;;2.92;1.90;;;20.50;50.00;;;;;;4936130;29;20381;-91
2022/03/23 14:08:07;;;;;;;3.05;2.10;;;19.90;49.70;;;;;;4962897;29;20062;-94
2022/03/23 14:10:37;;;;;;;3.22;1.90;;;19.30;49.00;;;;;;4963467;29;20055;-92
2022/03/23 14:13:09;;;;;;;3.50;2.20;;;20.60;49.70;;;;;;4946253;29;20047;-93
2022/03/23 14:16:19;;;;;;;3.83;2.33;;;22.10;50.40;;;;;;4962140;29;20075;-91
2022/03/23 14:18:50;;;;;;;3.63;2.25;;;22.10;51.80;;;;;;4960360;29;20051;-94
2022/03/23 14:21:32;;;;;;;3.92;2.42;;;20.60;49.60;;;;;;4958222;23;20062;-85
2022/03/23 14:23:58;;;;;;;4.45;2.40;;;20.40;49.60;;;;;;4946333;29;20055;-90
2022/03/23 14:26:32;;;;;;;2.83;1.75;;;19.90;49.30;;;;;;4908766;29;20051;-90
2022/03/23 14:29:31;;;;;;;3.92;2.13;;;20.20;49.30;;;;;;4962504;29;20055;-91
2022/03/23 14:31:57;;;;;;;3.67;2.30;;;20.70;49.60;;;;;;4954851;29;20059;-91
2022/03/23 14:34:37;;;;;;;4.00;2.15;;;19.20;49.10;;;;;;4962676;29;20071;-92
2022/03/23 14:37:21;;;;;;;3.38;2.05;;;21.10;50.20;;;;;;4946078;29;20062;-90
2022/03/23 14:39:47;;;;;;;3.42;2.17;;;21.60;50.90;;;;;;4944943;29;20051;-91
2022/03/23 14:42:14;;;;;;;2.75;1.80;;;20.60;49.60;;;;;;4943221;29;20055;-91
2022/03/23 14:45:43;;;;;;;3.72;2.35;;;20.40;49.40;;;;;;4916943;29;20073;-93
2022/03/23 14:48:26;;;;;;;3.53;1.85;;;20.90;49.70;;;;;;4878554;29;20138;-93
2022/03/23 14:51:21;;;;;;;3.88;2.10;;;20.70;49.90;;;;;;4954706;29;20120;-92
2022/03/23 14:53:53;;;;;;;3.22;2.00;;;20.70;49.50;;;;;;4943677;29;20050;-93
2022/03/23 14:56:24;;;;;;;2.97;1.70;;;20.60;49.90;;;;;;4927240;29;20066;-92
2022/03/23 14:59:13;;;;;;;3.17;2.00;;;20.20;49.20;;;;;;4939078;29;20040;-93
2022/03/23 15:02:31;;;;;;;3.53;1.70;;;21.20;49.80;;;;;;4944734;29;20075;-92
2022/03/23 15:13:15;;;;;;;2.85;2.00;;;20.60;49.40;;;;;;4924384;29;20056;-94
2022/03/23 15:14:58;;;;;;;4.07;1.90;;;20.70;49.50;;;;;;4967660;23;20503;-95
2022/03/23 15:17:31;;;;;;;4.07;1.83;;;20.20;49.20;;;;;;4945593;29;20054;-92
2022/03/23 15:20:30;;;;;;;2.95;1.63;;;20.30;50.10;;;;;;4928707;29;20060;-92
2022/03/23 15:22:57;;;;;;;3.17;1.70;;;20.60;49.40;;;;;;4917913;29;20118;-94
2022/03/23 20:48:17;;;;;;;17.50;6.90;;;20.00;49.40;;;;;;5666943;23;20033;-87
2022/03/23 21:54:54;;;;;;;12.75;6.00;;;20.90;50.30;;;;;;4785132;30;20072;-88
2022/03/23 21:57:38;;;;;;;13.45;5.00;;;21.80;51.10;;;;;;4770071;30;20051;-87
